sensor_id;sensor_type;location;lat;lon;timestamp;pressure;altitude;pressure_sealevel;temperature
17142;BMP180;32805;53.556;9.944;2023-04-09T00:01:00;102568.00;;;8.20
17142;BMP180;32805;53.556;9.944;2023-04-09T00:03:28;102580.00;;;8.20
17142;BMP180;32805;53.556;9.944;2023-04-09T00:05:56;102576.00;;;8.20
17142;BMP180;32805;53.556;9.944;2023-04-09T00:08:23;102578.00;;;8.20
17142;BMP180;32805;53.556;9.944;2023-04-09T00:10:53;102568.00;;;8.20
17142;BMP180;32805;53.556;9.944;2023-04-09T00:13:21;102565.00;;;8.20
17142;BMP180;32805;53.556;9.944;2023-04-09T00:16:04;102559.00;;;8.20
17142;BMP180;32805;53.556;9.944;2023-04-09T00:18:32;102565.00;;;8.20
17142;BMP180;32805;53.556;9.944;2023-04-09T00:20:59;102578.00;;;8.20
17142;BMP180;32805;53.556;9.944;2023-04-09T00:23:27;102567.00;;;8.20
17142;BMP180;32805;53.556;9.944;2023-04-09T00:25:57;102569.00;;;8.10
17142;BMP180;32805;53.556;9.944;2023-04-09T00:28:24;102570.00;;;8.10
17142;BMP180;32805;53.556;9.944;2023-04-09T00:30:52;102568.00;;;8.00
17142;BMP180;32805;53.556;9.944;2023-04-09T00:33:20;102563.00;;;8.00
17142;BMP180;32805;53.556;9.944;2023-04-09T00:35:47;102560.00;;;8.00
17142;BMP180;32805;53.556;9.944;2023-04-09T00:38:15;102572.00;;;8.00
17142;BMP180;32805;53.556;9.944;2023-04-09T00:40:47;102564.00;;;8.10
17142;BMP180;32805;53.556;9.944;2023-04-09T00:43:17;102569.00;;;8.10
17142;BMP180;32805;53.556;9.944;2023-04-09T00:45:44;102556.00;;;8.10
17142;BMP180;32805;53.556;9.944;2023-04-09T00:48:12;102568.00;;;8.10
17142;BMP180;32805;53.556;9.944;2023-04-09T00:50:40;102561.00;;;8.10
17142;BMP180;32805;53.556;9.944;2023-04-09T00:53:09;102566.00;;;8.10
17142;BMP180;32805;53.556;9.944;2023-04-09T00:55:39;102560.00;;;8.10
17142;BMP180;32805;53.556;9.944;2023-04-09T00:58:07;102562.00;;;8.10
17142;BMP180;32805;53.556;9.944;2023-04-09T01:00:36;102551.00;;;8.20
17142;BMP180;32805;53.556;9.944;2023-04-09T01:03:05;102559.00;;;8.10
17142;BMP180;32805;53.556;9.944;2023-04-09T01:05:37;102550.00;;;8.10
17142;BMP180;32805;53.556;9.944;2023-04-09T01:08:12;102555.00;;;8.00
17142;BMP180;32805;53.556;9.944;2023-04-09T01:10:47;102565.00;;;8.10
17142;BMP180;32805;53.556;9.944;2023-04-09T01:13:28;102565.00;;;8.10
17142;BMP180;32805;53.556;9.944;2023-04-09T01:16:00;102554.00;;;8.10
17142;BMP180;32805;53.556;9.944;2023-04-09T01:18:35;102569.00;;;8.10
17142;BMP180;32805;53.556;9.944;2023-04-09T01:21:06;102564.00;;;8.10
17142;BMP180;32805;53.556;9.944;2023-04-09T01:23:44;102562.00;;;8.10
17142;BMP180;32805;53.556;9.944;2023-04-09T01:26:20;102570.00;;;8.10
17142;BMP180;32805;53.556;9.944;2023-04-09T01:28:55;102562.00;;;8.20
17142;BMP180;32805;53.556;9.944;2023-04-09T01:31:27;102548.00;;;8.10
17142;BMP180;32805;53.556;9.944;2023-04-09T01:33:56;102564.00;;;8.20
17142;BMP180;32805;53.556;9.944;2023-04-09T01:36:25;102558.00;;;8.20
17142;BMP180;32805;53.556;9.944;2023-04-09T01:38:54;102542.00;;;8.20
17142;BMP180;32805;53.556;9.944;2023-04-09T01:41:23;102557.00;;;8.10
17142;BMP180;32805;53.556;9.944;2023-04-09T01:43:54;102546.00;;;8.20
17142;BMP180;32805;53.556;9.944;2023-04-09T01:46:23;102544.00;;;8.20
17142;BMP180;32805;53.556;9.944;2023-04-09T01:48:51;102544.00;;;8.20
17142;BMP180;32805;53.556;9.944;2023-04-09T01:51:20;102552.00;;;8.10
17142;BMP180;32805;53.556;9.944;2023-04-09T01:53:48;102553.00;;;8.20
17142;BMP180;32805;53.556;9.944;2023-04-09T01:56:16;102551.00;;;8.20
17142;BMP180;32805;53.556;9.944;2023-04-09T01:58:43;102550.00;;;8.20
17142;BMP180;32805;53.556;9.944;2023-04-09T02:01:21;102545.00;;;8.20
17142;BMP180;32805;53.556;9.944;2023-04-09T02:03:53;102543.00;;;8.20
17142;BMP180;32805;53.556;9.944;2023-04-09T02:06:25;102533.00;;;8.20
17142;BMP180;32805;53.556;9.944;2023-04-09T02:08:54;102533.00;;;8.20
17142;BMP180;32805;53.556;9.944;2023-04-09T02:11:25;102549.00;;;8.20
17142;BMP180;32805;53.556;9.944;2023-04-09T02:13:55;102542.00;;;8.20
17142;BMP180;32805;53.556;9.944;2023-04-09T02:16:24;102546.00;;;8.20
17142;BMP180;32805;53.556;9.944;2023-04-09T02:18:53;102537.00;;;8.30
17142;BMP180;32805;53.556;9.944;2023-04-09T02:21:21;102539.00;;;8.30
17142;BMP180;32805;53.556;9.944;2023-04-09T02:23:49;102534.00;;;8.20
17142;BMP180;32805;53.556;9.944;2023-04-09T02:26:17;102533.00;;;8.20
17142;BMP180;32805;53.556;9.944;2023-04-09T02:28:44;102538.00;;;8.20
17142;BMP180;32805;53.556;9.944;2023-04-09T02:31:12;102531.00;;;8.20
17142;BMP180;32805;53.556;9.944;2023-04-09T02:33:41;102528.00;;;8.20
17142;BMP180;32805;53.556;9.944;2023-04-09T02:36:10;102528.00;;;8.30
17142;BMP180;32805;53.556;9.944;2023-04-09T02:38:39;102525.00;;;8.30
17142;BMP180;32805;53.556;9.944;2023-04-09T02:41:07;102526.00;;;8.30
17142;BMP180;32805;53.556;9.944;2023-04-09T02:43:34;102520.00;;;8.30
17142;BMP180;32805;53.556;9.944;2023-04-09T02:46:02;102524.00;;;8.30
17142;BMP180;32805;53.556;9.944;2023-04-09T02:48:30;102518.00;;;8.30
17142;BMP180;32805;53.556;9.944;2023-04-09T02:50:59;102519.00;;;8.30
17142;BMP180;32805;53.556;9.944;2023-04-09T02:53:27;102523.00;;;8.30
17142;BMP180;32805;53.556;9.944;2023-04-09T02:55:54;102514.00;;;8.30
17142;BMP180;32805;53.556;9.944;2023-04-09T02:58:22;102516.00;;;8.30
17142;BMP180;32805;53.556;9.944;2023-04-09T03:00:49;102507.00;;;8.30
17142;BMP180;32805;53.556;9.944;2023-04-09T03:03:17;102503.00;;;8.30
17142;BMP180;32805;53.556;9.944;2023-04-09T03:05:45;102503.00;;;8.30
17142;BMP180;32805;53.556;9.944;2023-04-09T03:08:14;102501.00;;;8.30
17142;BMP180;32805;53.556;9.944;2023-04-09T03:10:42;102501.00;;;8.30
17142;BMP180;32805;53.556;9.944;2023-04-09T03:13:10;102506.00;;;8.30
17142;BMP180;32805;53.556;9.944;2023-04-09T03:15:37;102507.00;;;8.30
17142;BMP180;32805;53.556;9.944;2023-04-09T03:18:05;102500.00;;;8.30
17142;BMP180;32805;53.556;9.944;2023-04-09T03:20:36;102496.00;;;8.30
17142;BMP180;32805;53.556;9.944;2023-04-09T03:23:07;102495.00;;;8.30
17142;BMP180;32805;53.556;9.944;2023-04-09T03:25:40;102496.00;;;8.20
17142;BMP180;32805;53.556;9.944;2023-04-09T03:28:11;102493.00;;;8.30
17142;BMP180;32805;53.556;9.944;2023-04-09T03:30:45;102490.00;;;8.30
17142;BMP180;32805;53.556;9.944;2023-04-09T03:33:13;102491.00;;;8.30
17142;BMP180;32805;53.556;9.944;2023-04-09T03:35:49;102489.00;;;8.30
17142;BMP180;32805;53.556;9.944;2023-04-09T03:38:23;102492.00;;;8.30
17142;BMP180;32805;53.556;9.944;2023-04-09T03:40:52;102498.00;;;8.30
17142;BMP180;32805;53.556;9.944;2023-04-09T03:43:20;102497.00;;;8.30
17142;BMP180;32805;53.556;9.944;2023-04-09T03:45:51;102500.00;;;8.30
17142;BMP180;32805;53.556;9.944;2023-04-09T03:48:24;102498.00;;;8.30
17142;BMP180;32805;53.556;9.944;2023-04-09T03:50:53;102501.00;;;8.30
17142;BMP180;32805;53.556;9.944;2023-04-09T03:53:28;102486.00;;;8.30
17142;BMP180;32805;53.556;9.944;2023-04-09T03:56:03;102471.00;;;8.30
17142;BMP180;32805;53.556;9.944;2023-04-09T03:58:33;102492.00;;;8.30
17142;BMP180;32805;53.556;9.944;2023-04-09T04:01:01;102500.00;;;8.30
17142;BMP180;32805;53.556;9.944;2023-04-09T04:03:37;102495.00;;;8.30
17142;BMP180;32805;53.556;9.944;2023-04-09T04:06:10;102492.00;;;8.30
17142;BMP180;32805;53.556;9.944;2023-04-09T04:08:49;102499.00;;;8.30
17142;BMP180;32805;53.556;9.944;2023-04-09T04:11:22;102496.00;;;8.30
17142;BMP180;32805;53.556;9.944;2023-04-09T04:13:53;102495.00;;;8.30
17142;BMP180;32805;53.556;9.944;2023-04-09T04:16:22;102486.00;;;8.20
17142;BMP180;32805;53.556;9.944;2023-04-09T04:18:51;102486.00;;;8.20
17142;BMP180;32805;53.556;9.944;2023-04-09T04:21:20;102490.00;;;8.20
17142;BMP180;32805;53.556;9.944;2023-04-09T04:23:55;102494.00;;;8.30
17142;BMP180;32805;53.556;9.944;2023-04-09T04:26:27;102499.00;;;8.30
17142;BMP180;32805;53.556;9.944;2023-04-09T04:28:55;102496.00;;;8.30
17142;BMP180;32805;53.556;9.944;2023-04-09T04:31:43;102508.00;;;8.30
17142;BMP180;32805;53.556;9.944;2023-04-09T04:34:12;102506.00;;;8.30
17142;BMP180;32805;53.556;9.944;2023-04-09T04:36:43;102498.00;;;8.30
17142;BMP180;32805;53.556;9.944;2023-04-09T04:39:11;102498.00;;;8.30
17142;BMP180;32805;53.556;9.944;2023-04-09T04:41:52;102504.00;;;8.20
17142;BMP180;32805;53.556;9.944;2023-04-09T04:44:23;102512.00;;;8.20
17142;BMP180;32805;53.556;9.944;2023-04-09T04:46:59;102508.00;;;8.20
17142;BMP180;32805;53.556;9.944;2023-04-09T04:49:26;102507.00;;;8.20
17142;BMP180;32805;53.556;9.944;2023-04-09T04:51:54;102520.00;;;8.10
17142;BMP180;32805;53.556;9.944;2023-04-09T04:54:22;102524.00;;;8.20
17142;BMP180;32805;53.556;9.944;2023-04-09T04:56:55;102520.00;;;8.20
17142;BMP180;32805;53.556;9.944;2023-04-09T04:59:36;102513.00;;;8.10
17142;BMP180;32805;53.556;9.944;2023-04-09T05:02:05;102512.00;;;8.10
17142;BMP180;32805;53.556;9.944;2023-04-09T05:05:02;102511.00;;;8.20
17142;BMP180;32805;53.556;9.944;2023-04-09T05:07:36;102512.00;;;8.20
17142;BMP180;32805;53.556;9.944;2023-04-09T05:10:05;102512.00;;;8.20
17142;BMP180;32805;53.556;9.944;2023-04-09T05:12:38;102517.00;;;8.10
17142;BMP180;32805;53.556;9.944;2023-04-09T05:15:08;102520.00;;;8.10
17142;BMP180;32805;53.556;9.944;2023-04-09T05:17:36;102523.00;;;8.10
17142;BMP180;32805;53.556;9.944;2023-04-09T05:20:07;102521.00;;;8.10
17142;BMP180;32805;53.556;9.944;2023-04-09T05:22:46;102517.00;;;8.10
17142;BMP180;32805;53.556;9.944;2023-04-09T05:25:14;102518.00;;;8.10
17142;BMP180;32805;53.556;9.944;2023-04-09T05:27:44;102521.00;;;8.10
17142;BMP180;32805;53.556;9.944;2023-04-09T05:30:11;102522.00;;;8.10
17142;BMP180;32805;53.556;9.944;2023-04-09T05:32:40;102520.00;;;8.10
17142;BMP180;32805;53.556;9.944;2023-04-09T05:35:08;102516.00;;;8.10
17142;BMP180;32805;53.556;9.944;2023-04-09T05:37:39;102520.00;;;8.10
17142;BMP180;32805;53.556;9.944;2023-04-09T05:40:08;102509.00;;;8.10
17142;BMP180;32805;53.556;9.944;2023-04-09T05:42:36;102519.00;;;8.10
17142;BMP180;32805;53.556;9.944;2023-04-09T05:45:11;102524.00;;;8.10
17142;BMP180;32805;53.556;9.944;2023-04-09T05:47:46;102523.00;;;8.10
17142;BMP180;32805;53.556;9.944;2023-04-09T05:50:18;102528.00;;;8.10
17142;BMP180;32805;53.556;9.944;2023-04-09T05:52:49;102529.00;;;8.00
17142;BMP180;32805;53.556;9.944;2023-04-09T05:55:17;102519.00;;;8.00
17142;BMP180;32805;53.556;9.944;2023-04-09T05:57:57;102525.00;;;8.00
17142;BMP180;32805;53.556;9.944;2023-04-09T06:00:27;102527.00;;;8.00
17142;BMP180;32805;53.556;9.944;2023-04-09T06:02:55;102539.00;;;8.00
17142;BMP180;32805;53.556;9.944;2023-04-09T06:05:25;102532.00;;;8.00
17142;BMP180;32805;53.556;9.944;2023-04-09T06:07:53;102533.00;;;8.00
17142;BMP180;32805;53.556;9.944;2023-04-09T06:10:22;102535.00;;;8.00
17142;BMP180;32805;53.556;9.944;2023-04-09T06:12:50;102534.00;;;8.00
17142;BMP180;32805;53.556;9.944;2023-04-09T06:15:18;102534.00;;;8.00
17142;BMP180;32805;53.556;9.944;2023-04-09T06:17:47;102530.00;;;8.00
17142;BMP180;32805;53.556;9.944;2023-04-09T06:20:15;102533.00;;;7.90
17142;BMP180;32805;53.556;9.944;2023-04-09T06:22:43;102533.00;;;7.90
17142;BMP180;32805;53.556;9.944;2023-04-09T06:25:11;102537.00;;;7.90
17142;BMP180;32805;53.556;9.944;2023-04-09T06:27:38;102537.00;;;8.00
17142;BMP180;32805;53.556;9.944;2023-04-09T06:30:07;102545.00;;;8.00
17142;BMP180;32805;53.556;9.944;2023-04-09T06:32:35;102541.00;;;8.00
17142;BMP180;32805;53.556;9.944;2023-04-09T06:35:14;102549.00;;;8.00
17142;BMP180;32805;53.556;9.944;2023-04-09T06:37:41;102544.00;;;7.90
17142;BMP180;32805;53.556;9.944;2023-04-09T06:40:10;102549.00;;;7.90
17142;BMP180;32805;53.556;9.944;2023-04-09T06:42:38;102554.00;;;7.90
17142;BMP180;32805;53.556;9.944;2023-04-09T06:45:15;102560.00;;;7.90
17142;BMP180;32805;53.556;9.944;2023-04-09T06:47:43;102553.00;;;7.90
17142;BMP180;32805;53.556;9.944;2023-04-09T06:50:10;102555.00;;;7.90
17142;BMP180;32805;53.556;9.944;2023-04-09T06:52:40;102549.00;;;7.90
17142;BMP180;32805;53.556;9.944;2023-04-09T06:55:08;102550.00;;;7.90
17142;BMP180;32805;53.556;9.944;2023-04-09T06:57:36;102547.00;;;7.90
17142;BMP180;32805;53.556;9.944;2023-04-09T07:00:06;102551.00;;;7.90
17142;BMP180;32805;53.556;9.944;2023-04-09T07:02:35;102556.00;;;7.90
17142;BMP180;32805;53.556;9.944;2023-04-09T07:05:03;102547.00;;;7.90
17142;BMP180;32805;53.556;9.944;2023-04-09T07:07:31;102561.00;;;8.00
17142;BMP180;32805;53.556;9.944;2023-04-09T07:10:00;102558.00;;;8.00
17142;BMP180;32805;53.556;9.944;2023-04-09T07:12:28;102560.00;;;8.00
17142;BMP180;32805;53.556;9.944;2023-04-09T07:14:57;102551.00;;;8.00
17142;BMP180;32805;53.556;9.944;2023-04-09T07:17:25;102555.00;;;8.00
17142;BMP180;32805;53.556;9.944;2023-04-09T07:19:53;102559.00;;;8.10
17142;BMP180;32805;53.556;9.944;2023-04-09T07:22:22;102557.00;;;8.10
17142;BMP180;32805;53.556;9.944;2023-04-09T07:24:51;102553.00;;;8.20
17142;BMP180;32805;53.556;9.944;2023-04-09T07:27:22;102554.00;;;8.30
17142;BMP180;32805;53.556;9.944;2023-04-09T07:29:53;102551.00;;;8.40
17142;BMP180;32805;53.556;9.944;2023-04-09T07:32:21;102556.00;;;8.40
17142;BMP180;32805;53.556;9.944;2023-04-09T07:34:50;102539.00;;;8.50
17142;BMP180;32805;53.556;9.944;2023-04-09T07:37:19;102566.00;;;8.50
17142;BMP180;32805;53.556;9.944;2023-04-09T07:39:47;102551.00;;;8.60
17142;BMP180;32805;53.556;9.944;2023-04-09T07:42:16;102558.00;;;8.60
17142;BMP180;32805;53.556;9.944;2023-04-09T07:44:45;102551.00;;;8.70
17142;BMP180;32805;53.556;9.944;2023-04-09T07:47:13;102549.00;;;8.80
17142;BMP180;32805;53.556;9.944;2023-04-09T07:49:40;102544.00;;;8.90
17142;BMP180;32805;53.556;9.944;2023-04-09T07:52:08;102553.00;;;9.00
17142;BMP180;32805;53.556;9.944;2023-04-09T07:54:36;102553.00;;;9.10
17142;BMP180;32805;53.556;9.944;2023-04-09T07:57:03;102548.00;;;9.10
17142;BMP180;32805;53.556;9.944;2023-04-09T07:59:32;102554.00;;;9.20
17142;BMP180;32805;53.556;9.944;2023-04-09T08:02:03;102549.00;;;9.20
17142;BMP180;32805;53.556;9.944;2023-04-09T08:04:31;102550.00;;;9.20
17142;BMP180;32805;53.556;9.944;2023-04-09T08:06:59;102552.00;;;9.20
17142;BMP180;32805;53.556;9.944;2023-04-09T08:09:26;102549.00;;;9.20
17142;BMP180;32805;53.556;9.944;2023-04-09T08:11:54;102555.00;;;9.20
17142;BMP180;32805;53.556;9.944;2023-04-09T08:14:22;102553.00;;;9.20
17142;BMP180;32805;53.556;9.944;2023-04-09T08:16:50;102550.00;;;9.20
17142;BMP180;32805;53.556;9.944;2023-04-09T08:19:19;102542.00;;;9.20
17142;BMP180;32805;53.556;9.944;2023-04-09T08:21:47;102547.00;;;9.20
17142;BMP180;32805;53.556;9.944;2023-04-09T08:24:15;102552.00;;;9.40
17142;BMP180;32805;53.556;9.944;2023-04-09T08:26:43;102554.00;;;9.40
17142;BMP180;32805;53.556;9.944;2023-04-09T08:29:12;102553.00;;;9.50
17142;BMP180;32805;53.556;9.944;2023-04-09T08:31:40;102552.00;;;9.60
17142;BMP180;32805;53.556;9.944;2023-04-09T08:34:08;102553.00;;;9.60
17142;BMP180;32805;53.556;9.944;2023-04-09T08:36:37;102553.00;;;9.60
17142;BMP180;32805;53.556;9.944;2023-04-09T08:39:04;102554.00;;;9.60
17142;BMP180;32805;53.556;9.944;2023-04-09T08:41:33;102551.00;;;9.60
17142;BMP180;32805;53.556;9.944;2023-04-09T08:44:01;102553.00;;;9.60
17142;BMP180;32805;53.556;9.944;2023-04-09T08:46:29;102550.00;;;9.70
17142;BMP180;32805;53.556;9.944;2023-04-09T08:48:57;102544.00;;;10.00
17142;BMP180;32805;53.556;9.944;2023-04-09T08:51:24;102543.00;;;10.20
17142;BMP180;32805;53.556;9.944;2023-04-09T08:53:57;102546.00;;;10.50
17142;BMP180;32805;53.556;9.944;2023-04-09T08:56:29;102538.00;;;10.70
17142;BMP180;32805;53.556;9.944;2023-04-09T08:58:59;102533.00;;;10.90
17142;BMP180;32805;53.556;9.944;2023-04-09T09:01:28;102539.00;;;11.10
17142;BMP180;32805;53.556;9.944;2023-04-09T09:03:58;102541.00;;;11.10
17142;BMP180;32805;53.556;9.944;2023-04-09T09:06:28;102542.00;;;11.10
17142;BMP180;32805;53.556;9.944;2023-04-09T09:09:01;102552.00;;;11.00
17142;BMP180;32805;53.556;9.944;2023-04-09T09:11:30;102550.00;;;11.00
17142;BMP180;32805;53.556;9.944;2023-04-09T09:13:59;102547.00;;;11.00
17142;BMP180;32805;53.556;9.944;2023-04-09T09:16:27;102552.00;;;11.00
17142;BMP180;32805;53.556;9.944;2023-04-09T09:18:55;102554.00;;;11.00
17142;BMP180;32805;53.556;9.944;2023-04-09T09:21:24;102545.00;;;11.10
17142;BMP180;32805;53.556;9.944;2023-04-09T09:23:53;102546.00;;;11.20
17142;BMP180;32805;53.556;9.944;2023-04-09T09:26:23;102544.00;;;11.30
17142;BMP180;32805;53.556;9.944;2023-04-09T09:28:52;102544.00;;;11.30
17142;BMP180;32805;53.556;9.944;2023-04-09T09:31:21;102541.00;;;11.20
17142;BMP180;32805;53.556;9.944;2023-04-09T09:33:50;102548.00;;;11.20
17142;BMP180;32805;53.556;9.944;2023-04-09T09:36:30;102551.00;;;11.20
17142;BMP180;32805;53.556;9.944;2023-04-09T09:38:59;102549.00;;;11.10
17142;BMP180;32805;53.556;9.944;2023-04-09T09:41:30;102545.00;;;11.00
17142;BMP180;32805;53.556;9.944;2023-04-09T09:43:58;102545.00;;;11.00
17142;BMP180;32805;53.556;9.944;2023-04-09T09:46:26;102536.00;;;10.90
17142;BMP180;32805;53.556;9.944;2023-04-09T09:48:55;102541.00;;;11.00
17142;BMP180;32805;53.556;9.944;2023-04-09T09:51:24;102532.00;;;11.10
17142;BMP180;32805;53.556;9.944;2023-04-09T09:53:56;102539.00;;;11.10
17142;BMP180;32805;53.556;9.944;2023-04-09T09:56:29;102534.00;;;11.00
17142;BMP180;32805;53.556;9.944;2023-04-09T09:59:06;102538.00;;;11.00
17142;BMP180;32805;53.556;9.944;2023-04-09T10:01:37;102530.00;;;11.10
17142;BMP180;32805;53.556;9.944;2023-04-09T10:04:05;102537.00;;;11.20
17142;BMP180;32805;53.556;9.944;2023-04-09T10:06:39;102533.00;;;11.20
17142;BMP180;32805;53.556;9.944;2023-04-09T10:09:09;102538.00;;;11.20
17142;BMP180;32805;53.556;9.944;2023-04-09T10:11:38;102539.00;;;11.30
17142;BMP180;32805;53.556;9.944;2023-04-09T10:14:11;102539.00;;;11.40
17142;BMP180;32805;53.556;9.944;2023-04-09T10:16:39;102535.00;;;11.60
17142;BMP180;32805;53.556;9.944;2023-04-09T10:19:07;102516.00;;;11.80
17142;BMP180;32805;53.556;9.944;2023-04-09T10:21:42;102523.00;;;12.10
17142;BMP180;32805;53.556;9.944;2023-04-09T10:24:11;102518.00;;;12.50
17142;BMP180;32805;53.556;9.944;2023-04-09T10:26:42;102517.00;;;12.90
17142;BMP180;32805;53.556;9.944;2023-04-09T10:29:14;102525.00;;;13.20
17142;BMP180;32805;53.556;9.944;2023-04-09T10:32:03;102506.00;;;13.50
17142;BMP180;32805;53.556;9.944;2023-04-09T10:34:34;102501.00;;;13.70
17142;BMP180;32805;53.556;9.944;2023-04-09T10:37:02;102507.00;;;13.80
17142;BMP180;32805;53.556;9.944;2023-04-09T10:39:31;102508.00;;;13.90
17142;BMP180;32805;53.556;9.944;2023-04-09T10:42:00;102500.00;;;13.80
17142;BMP180;32805;53.556;9.944;2023-04-09T10:44:30;102508.00;;;13.70
17142;BMP180;32805;53.556;9.944;2023-04-09T10:46:58;102508.00;;;13.60
17142;BMP180;32805;53.556;9.944;2023-04-09T10:49:26;102508.00;;;13.60
17142;BMP180;32805;53.556;9.944;2023-04-09T10:52:01;102510.00;;;13.50
17142;BMP180;32805;53.556;9.944;2023-04-09T10:54:43;102493.00;;;13.40
17142;BMP180;32805;53.556;9.944;2023-04-09T10:57:16;102491.00;;;13.20
17142;BMP180;32805;53.556;9.944;2023-04-09T10:59:47;102494.00;;;13.10
17142;BMP180;32805;53.556;9.944;2023-04-09T11:02:39;102491.00;;;13.30
17142;BMP180;32805;53.556;9.944;2023-04-09T11:05:18;102481.00;;;13.70
17142;BMP180;32805;53.556;9.944;2023-04-09T11:07:51;102486.00;;;13.80
17142;BMP180;32805;53.556;9.944;2023-04-09T11:10:19;102497.00;;;13.90
17142;BMP180;32805;53.556;9.944;2023-04-09T11:12:47;102477.00;;;13.90
17142;BMP180;32805;53.556;9.944;2023-04-09T11:15:17;102483.00;;;14.10
17142;BMP180;32805;53.556;9.944;2023-04-09T11:17:45;102475.00;;;14.40
17142;BMP180;32805;53.556;9.944;2023-04-09T11:20:16;102480.00;;;14.40
17142;BMP180;32805;53.556;9.944;2023-04-09T11:22:44;102478.00;;;14.60
17142;BMP180;32805;53.556;9.944;2023-04-09T11:25:17;102475.00;;;14.60
17142;BMP180;32805;53.556;9.944;2023-04-09T11:27:45;102469.00;;;14.60
17142;BMP180;32805;53.556;9.944;2023-04-09T11:30:16;102474.00;;;14.30
17142;BMP180;32805;53.556;9.944;2023-04-09T11:32:44;102470.00;;;14.30
17142;BMP180;32805;53.556;9.944;2023-04-09T11:35:12;102463.00;;;14.10
17142;BMP180;32805;53.556;9.944;2023-04-09T11:37:42;102482.00;;;13.90
17142;BMP180;32805;53.556;9.944;2023-04-09T11:40:14;102475.00;;;13.70
17142;BMP180;32805;53.556;9.944;2023-04-09T11:42:43;102468.00;;;13.60
17142;BMP180;32805;53.556;9.944;2023-04-09T11:45:12;102469.00;;;13.70
17142;BMP180;32805;53.556;9.944;2023-04-09T11:47:42;102469.00;;;13.80
17142;BMP180;32805;53.556;9.944;2023-04-09T11:50:11;102453.00;;;13.80
17142;BMP180;32805;53.556;9.944;2023-04-09T11:52:39;102466.00;;;13.80
17142;BMP180;32805;53.556;9.944;2023-04-09T11:55:08;102463.00;;;13.80
17142;BMP180;32805;53.556;9.944;2023-04-09T11:57:41;102464.00;;;13.90
17142;BMP180;32805;53.556;9.944;2023-04-09T12:00:11;102470.00;;;14.00
17142;BMP180;32805;53.556;9.944;2023-04-09T12:02:42;102449.00;;;14.10
17142;BMP180;32805;53.556;9.944;2023-04-09T12:05:20;102455.00;;;14.30
17142;BMP180;32805;53.556;9.944;2023-04-09T12:07:48;102452.00;;;14.30
17142;BMP180;32805;53.556;9.944;2023-04-09T12:10:26;102446.00;;;14.20
17142;BMP180;32805;53.556;9.944;2023-04-09T12:12:54;102449.00;;;14.00
17142;BMP180;32805;53.556;9.944;2023-04-09T12:15:30;102453.00;;;14.10
17142;BMP180;32805;53.556;9.944;2023-04-09T12:18:00;102441.00;;;14.00
17142;BMP180;32805;53.556;9.944;2023-04-09T12:20:33;102443.00;;;14.10
17142;BMP180;32805;53.556;9.944;2023-04-09T12:23:03;102445.00;;;14.10
17142;BMP180;32805;53.556;9.944;2023-04-09T12:25:32;102436.00;;;14.10
17142;BMP180;32805;53.556;9.944;2023-04-09T12:28:01;102438.00;;;14.10
17142;BMP180;32805;53.556;9.944;2023-04-09T12:30:29;102436.00;;;14.10
17142;BMP180;32805;53.556;9.944;2023-04-09T12:32:57;102426.00;;;14.00
17142;BMP180;32805;53.556;9.944;2023-04-09T12:35:26;102430.00;;;14.00
17142;BMP180;32805;53.556;9.944;2023-04-09T12:37:55;102438.00;;;14.00
17142;BMP180;32805;53.556;9.944;2023-04-09T12:40:25;102433.00;;;14.00
17142;BMP180;32805;53.556;9.944;2023-04-09T12:42:53;102438.00;;;14.00
17142;BMP180;32805;53.556;9.944;2023-04-09T12:45:20;102426.00;;;13.80
17142;BMP180;32805;53.556;9.944;2023-04-09T12:47:48;102423.00;;;13.80
17142;BMP180;32805;53.556;9.944;2023-04-09T12:50:16;102422.00;;;13.90
17142;BMP180;32805;53.556;9.944;2023-04-09T12:52:45;102417.00;;;13.90
17142;BMP180;32805;53.556;9.944;2023-04-09T12:55:13;102424.00;;;14.00
17142;BMP180;32805;53.556;9.944;2023-04-09T12:57:43;102426.00;;;14.00
17142;BMP180;32805;53.556;9.944;2023-04-09T13:00:12;102423.00;;;14.00
17142;BMP180;32805;53.556;9.944;2023-04-09T13:02:40;102420.00;;;14.00
17142;BMP180;32805;53.556;9.944;2023-04-09T13:05:08;102416.00;;;14.00
17142;BMP180;32805;53.556;9.944;2023-04-09T13:07:36;102418.00;;;14.00
17142;BMP180;32805;53.556;9.944;2023-04-09T13:10:10;102403.00;;;14.10
17142;BMP180;32805;53.556;9.944;2023-04-09T13:12:38;102400.00;;;14.10
17142;BMP180;32805;53.556;9.944;2023-04-09T13:15:06;102395.00;;;14.20
17142;BMP180;32805;53.556;9.944;2023-04-09T13:17:34;102405.00;;;14.30
17142;BMP180;32805;53.556;9.944;2023-04-09T13:20:02;102399.00;;;14.30
17142;BMP180;32805;53.556;9.944;2023-04-09T13:22:30;102396.00;;;14.30
17142;BMP180;32805;53.556;9.944;2023-04-09T13:24:58;102385.00;;;14.30
17142;BMP180;32805;53.556;9.944;2023-04-09T13:27:27;102382.00;;;14.10
17142;BMP180;32805;53.556;9.944;2023-04-09T13:29:55;102381.00;;;14.10
17142;BMP180;32805;53.556;9.944;2023-04-09T13:32:23;102377.00;;;14.10
17142;BMP180;32805;53.556;9.944;2023-04-09T13:34:51;102374.00;;;14.20
17142;BMP180;32805;53.556;9.944;2023-04-09T13:37:20;102373.00;;;14.20
17142;BMP180;32805;53.556;9.944;2023-04-09T13:39:48;102385.00;;;14.20
17142;BMP180;32805;53.556;9.944;2023-04-09T13:42:16;102367.00;;;14.20
17142;BMP180;32805;53.556;9.944;2023-04-09T13:44:45;102386.00;;;14.30
17142;BMP180;32805;53.556;9.944;2023-04-09T13:47:15;102368.00;;;14.40
17142;BMP180;32805;53.556;9.944;2023-04-09T13:49:43;102372.00;;;14.50
17142;BMP180;32805;53.556;9.944;2023-04-09T13:52:12;102371.00;;;14.40
17142;BMP180;32805;53.556;9.944;2023-04-09T13:54:40;102373.00;;;14.40
17142;BMP180;32805;53.556;9.944;2023-04-09T13:57:08;102374.00;;;14.50
17142;BMP180;32805;53.556;9.944;2023-04-09T13:59:36;102377.00;;;14.50
17142;BMP180;32805;53.556;9.944;2023-04-09T14:02:08;102369.00;;;14.50
17142;BMP180;32805;53.556;9.944;2023-04-09T14:04:36;102361.00;;;14.60
17142;BMP180;32805;53.556;9.944;2023-04-09T14:07:04;102355.00;;;14.60
17142;BMP180;32805;53.556;9.944;2023-04-09T14:09:32;102359.00;;;14.60
17142;BMP180;32805;53.556;9.944;2023-04-09T14:12:00;102357.00;;;14.70
17142;BMP180;32805;53.556;9.944;2023-04-09T14:14:28;102349.00;;;14.80
17142;BMP180;32805;53.556;9.944;2023-04-09T14:16:56;102363.00;;;14.80
17142;BMP180;32805;53.556;9.944;2023-04-09T14:19:25;102362.00;;;14.90